TRS238 KSTL-KORF
Flight info
| Callsign | TRS238 |
|---|---|
| Flight time | 1h 31m |
| Altitude | 39000 |
| Route | PXV IIU STEWS BKW DRAIK |
| Aircraft | B737/M-SDE3GHIRWXYZ/LB1 |
Departure
| Time | 2026-04-25 19:21 |
|---|---|
| Airport | St. Louis Lambert International Airport (KSTL) |
Arrival
| Time | 2026-04-25 20:53 |
|---|---|
| Airport | Norfolk International Airport (KORF) |
| Time | Latitude | Longitude | Altitude | Speed | Heading |
|---|---|---|---|---|---|
| 2026-04-25 18:32 | 38.74151 | -90.36005 | 570 ft | 0 kts | 203° |
| 2026-04-25 19:06 | 38.74152 | -90.36005 | 588 ft | 1 kts | 203° |
| 2026-04-25 19:06 | 38.74185 | -90.35989 | 573 ft | 3 kts | 196° |
| 2026-04-25 19:06 | 38.74202 | -90.35983 | 571 ft | 1 kts | 193° |
| 2026-04-25 19:07 | 38.74208 | -90.35981 | 577 ft | 1 kts | 193° |
| 2026-04-25 19:12 | 38.74206 | -90.35987 | 573 ft | 1 kts | 238° |
| 2026-04-25 19:12 | 38.74219 | -90.35996 | 575 ft | 3 kts | 341° |
| 2026-04-25 19:12 | 38.74237 | -90.36008 | 571 ft | 3 kts | 323° |
| 2026-04-25 19:12 | 38.74255 | -90.36037 | 571 ft | 3 kts | 301° |
| 2026-04-25 19:14 | 38.74255 | -90.36038 | 571 ft | 1 kts | 302° |
| 2026-04-25 19:15 | 38.74283 | -90.36094 | 572 ft | 13 kts | 302° |
| 2026-04-25 19:15 | 38.74338 | -90.36207 | 570 ft | 16 kts | 301° |
| 2026-04-25 19:15 | 38.74402 | -90.36336 | 563 ft | 18 kts | 303° |
| 2026-04-25 19:15 | 38.74469 | -90.36471 | 557 ft | 18 kts | 301° |
| 2026-04-25 19:16 | 38.74533 | -90.36600 | 554 ft | 17 kts | 303° |
| 2026-04-25 19:16 | 38.74596 | -90.36725 | 556 ft | 16 kts | 301° |
| 2026-04-25 19:16 | 38.74645 | -90.36845 | 558 ft | 15 kts | 296° |
| 2026-04-25 19:16 | 38.74703 | -90.36953 | 554 ft | 14 kts | 305° |
| 2026-04-25 19:17 | 38.74755 | -90.37058 | 559 ft | 14 kts | 302° |
| 2026-04-25 19:17 | 38.74804 | -90.37160 | 556 ft | 13 kts | 301° |
| 2026-04-25 19:17 | 38.74853 | -90.37257 | 561 ft | 13 kts | 303° |
| 2026-04-25 19:17 | 38.74880 | -90.37362 | 558 ft | 12 kts | 299° |
| 2026-04-25 19:18 | 38.74927 | -90.37453 | 556 ft | 12 kts | 302° |
| 2026-04-25 19:18 | 38.74971 | -90.37544 | 553 ft | 12 kts | 302° |
| 2026-04-25 19:18 | 38.75014 | -90.37633 | 552 ft | 12 kts | 302° |
| 2026-04-25 19:18 | 38.75058 | -90.37722 | 549 ft | 12 kts | 302° |
| 2026-04-25 19:19 | 38.75105 | -90.37819 | 547 ft | 13 kts | 302° |
| 2026-04-25 19:19 | 38.75152 | -90.37914 | 547 ft | 12 kts | 302° |
| 2026-04-25 19:19 | 38.75198 | -90.38003 | 547 ft | 10 kts | 313° |
| 2026-04-25 19:19 | 38.75240 | -90.38022 | 546 ft | 10 kts | 17° |
| 2026-04-25 19:20 | 38.75304 | -90.37971 | 546 ft | 7 kts | 33° |
| 2026-04-25 19:20 | 38.75357 | -90.37926 | 549 ft | 15 kts | 38° |
| 2026-04-25 19:20 | 38.75326 | -90.37783 | 546 ft | 37 kts | 121° |
| 2026-04-25 19:20 | 38.75055 | -90.37230 | 560 ft | 106 kts | 123° |
| 2026-04-25 19:21 | 38.74582 | -90.36220 | 639 ft | 151 kts | 119° |
| 2026-04-25 19:21 | 38.73519 | -90.33899 | 2221 ft | 148 kts | 121° |
| 2026-04-25 19:21 | 38.72962 | -90.32773 | 2940 ft | 155 kts | 113° |
| 2026-04-25 19:22 | 38.72817 | -90.31271 | 3365 ft | 187 kts | 88° |
| 2026-04-25 19:22 | 38.72808 | -90.29450 | 3641 ft | 222 kts | 91° |
| 2026-04-25 19:22 | 38.72739 | -90.25071 | 4834 ft | 258 kts | 91° |
| 2026-04-25 19:23 | 38.72704 | -90.22771 | 5878 ft | 260 kts | 91° |
| 2026-04-25 19:23 | 38.72648 | -90.18047 | 7769 ft | 270 kts | 91° |
| 2026-04-25 19:23 | 38.72613 | -90.15624 | 8781 ft | 273 kts | 91° |
| 2026-04-25 19:24 | 38.72574 | -90.13170 | 9839 ft | 278 kts | 91° |
| 2026-04-25 19:24 | 38.72531 | -90.10648 | 10566 ft | 293 kts | 91° |
| 2026-04-25 19:24 | 38.72451 | -90.05431 | 12668 ft | 294 kts | 91° |
| 2026-04-25 19:25 | 38.72407 | -90.00035 | 14389 ft | 309 kts | 91° |
| 2026-04-25 19:25 | 38.72391 | -89.97258 | 15242 ft | 316 kts | 91° |
| 2026-04-25 19:25 | 38.72370 | -89.94414 | 16099 ft | 323 kts | 90° |
| 2026-04-25 19:26 | 38.72344 | -89.91512 | 16965 ft | 329 kts | 90° |
| 2026-04-25 19:26 | 38.72311 | -89.88554 | 17827 ft | 336 kts | 90° |
| 2026-04-25 19:26 | 38.72272 | -89.85538 | 18675 ft | 341 kts | 91° |
| 2026-04-25 19:26 | 38.72228 | -89.82490 | 19509 ft | 344 kts | 91° |
| 2026-04-25 19:27 | 38.72182 | -89.79404 | 20299 ft | 349 kts | 91° |
| 2026-04-25 19:27 | 38.72151 | -89.77338 | 20841 ft | 352 kts | 91° |
| 2026-04-25 19:27 | 38.72088 | -89.73110 | 21931 ft | 358 kts | 91° |
| 2026-04-25 19:27 | 38.72040 | -89.69900 | 22722 ft | 363 kts | 90° |
| 2026-04-25 19:28 | 38.71936 | -89.66654 | 23486 ft | 369 kts | 97° |
| 2026-04-25 19:28 | 38.71314 | -89.63445 | 24109 ft | 374 kts | 112° |
| 2026-04-25 19:28 | 38.70174 | -89.60444 | 24798 ft | 377 kts | 118° |
| 2026-04-25 19:28 | 38.68931 | -89.57464 | 25457 ft | 382 kts | 119° |
| 2026-04-25 19:29 | 38.67662 | -89.54453 | 26080 ft | 387 kts | 119° |
| 2026-04-25 19:29 | 38.66382 | -89.51409 | 26768 ft | 390 kts | 119° |
| 2026-04-25 19:29 | 38.65107 | -89.48349 | 27579 ft | 389 kts | 119° |
| 2026-04-25 19:29 | 38.63863 | -89.45343 | 28424 ft | 387 kts | 119° |
| 2026-04-25 19:30 | 38.62610 | -89.42303 | 29232 ft | 387 kts | 119° |
| 2026-04-25 19:30 | 38.61346 | -89.39229 | 29674 ft | 397 kts | 119° |
| 2026-04-25 19:30 | 38.60034 | -89.36037 | 29780 ft | 414 kts | 119° |
| 2026-04-25 19:30 | 38.58671 | -89.32723 | 29901 ft | 429 kts | 119° |
| 2026-04-25 19:31 | 38.57261 | -89.29291 | 30006 ft | 444 kts | 119° |
| 2026-04-25 19:31 | 38.55802 | -89.25744 | 30098 ft | 457 kts | 119° |
| 2026-04-25 19:31 | 38.54302 | -89.22098 | 30172 ft | 469 kts | 119° |
| 2026-04-25 19:31 | 38.52767 | -89.18372 | 30240 ft | 480 kts | 119° |
| 2026-04-25 19:32 | 38.51199 | -89.14566 | 30361 ft | 488 kts | 119° |
| 2026-04-25 19:32 | 38.49607 | -89.10710 | 30634 ft | 492 kts | 119° |
| 2026-04-25 19:32 | 38.48008 | -89.06839 | 30978 ft | 493 kts | 119° |
| 2026-04-25 19:32 | 38.46948 | -89.04277 | 31231 ft | 494 kts | 119° |
| 2026-04-25 19:33 | 38.44801 | -88.99095 | 31789 ft | 493 kts | 119° |
| 2026-04-25 19:33 | 38.43196 | -88.95225 | 32177 ft | 494 kts | 119° |
| 2026-04-25 19:33 | 38.41587 | -88.91354 | 32527 ft | 495 kts | 119° |
| 2026-04-25 19:33 | 38.39973 | -88.87476 | 32882 ft | 495 kts | 119° |
| 2026-04-25 19:34 | 38.38356 | -88.83595 | 33247 ft | 496 kts | 120° |
| 2026-04-25 19:34 | 38.36737 | -88.79714 | 33613 ft | 496 kts | 120° |
| 2026-04-25 19:34 | 38.35137 | -88.75884 | 33953 ft | 497 kts | 120° |
| 2026-04-25 19:34 | 38.33510 | -88.71993 | 34252 ft | 497 kts | 120° |
| 2026-04-25 19:35 | 38.31882 | -88.68105 | 34588 ft | 496 kts | 120° |
| 2026-04-25 19:35 | 38.30262 | -88.64241 | 34952 ft | 495 kts | 120° |
| 2026-04-25 19:35 | 38.28640 | -88.60375 | 35282 ft | 494 kts | 120° |
| 2026-04-25 19:35 | 38.27016 | -88.56510 | 35577 ft | 494 kts | 120° |
| 2026-04-25 19:36 | 38.25395 | -88.52660 | 35875 ft | 494 kts | 120° |
| 2026-04-25 19:36 | 38.23773 | -88.48810 | 36205 ft | 493 kts | 120° |
| 2026-04-25 19:36 | 38.22151 | -88.44964 | 36522 ft | 492 kts | 120° |
| 2026-04-25 19:36 | 38.20532 | -88.41130 | 36819 ft | 492 kts | 120° |
| 2026-04-25 19:37 | 38.18911 | -88.37296 | 37099 ft | 492 kts | 120° |
| 2026-04-25 19:37 | 38.17289 | -88.33465 | 37398 ft | 492 kts | 120° |
| 2026-04-25 19:37 | 38.15668 | -88.29640 | 37696 ft | 491 kts | 120° |
| 2026-04-25 19:37 | 38.14047 | -88.25822 | 37968 ft | 491 kts | 120° |
| 2026-04-25 19:38 | 38.12446 | -88.22053 | 38217 ft | 491 kts | 121° |
| 2026-04-25 19:38 | 38.10824 | -88.18240 | 38475 ft | 491 kts | 121° |
| 2026-04-25 19:38 | 38.09203 | -88.14433 | 38733 ft | 490 kts | 121° |
| 2026-04-25 19:38 | 38.07581 | -88.10628 | 38921 ft | 491 kts | 121° |
| 2026-04-25 19:39 | 38.04312 | -88.02976 | 38926 ft | 493 kts | 121° |
| 2026-04-25 19:39 | 38.01047 | -87.95349 | 38932 ft | 490 kts | 121° |
| 2026-04-25 19:40 | 37.97804 | -87.87788 | 38936 ft | 487 kts | 121° |
| 2026-04-25 19:40 | 37.94664 | -87.80177 | 38925 ft | 488 kts | 113° |
| 2026-04-25 19:41 | 37.93694 | -87.76061 | 38947 ft | 489 kts | 102° |
| 2026-04-25 19:41 | 37.93266 | -87.71792 | 38942 ft | 490 kts | 92° |
| 2026-04-25 19:41 | 37.93546 | -87.66037 | 38957 ft | 489 kts | 83° |
| 2026-04-25 19:42 | 37.94670 | -87.54627 | 38949 ft | 492 kts | 82° |
| 2026-04-25 19:42 | 37.95489 | -87.46010 | 38944 ft | 493 kts | 83° |
| 2026-04-25 19:43 | 37.96254 | -87.37352 | 38945 ft | 495 kts | 83° |
| 2026-04-25 19:43 | 37.96997 | -87.28662 | 38940 ft | 496 kts | 83° |
| 2026-04-25 19:44 | 37.97733 | -87.19969 | 38929 ft | 497 kts | 83° |
| 2026-04-25 19:44 | 37.98467 | -87.11250 | 38928 ft | 497 kts | 83° |
| 2026-04-25 19:45 | 37.99192 | -87.02579 | 38924 ft | 489 kts | 83° |
| 2026-04-25 19:45 | 37.99539 | -86.98407 | 38914 ft | 474 kts | 83° |
| 2026-04-25 19:45 | 37.99883 | -86.94241 | 38928 ft | 467 kts | 83° |
| 2026-04-25 19:46 | 38.00537 | -86.86281 | 38922 ft | 449 kts | 84° |
| 2026-04-25 19:46 | 38.01178 | -86.78429 | 38942 ft | 447 kts | 84° |
| 2026-04-25 19:47 | 38.01813 | -86.70578 | 38938 ft | 449 kts | 84° |
| 2026-04-25 19:47 | 38.02446 | -86.62686 | 38932 ft | 450 kts | 84° |
| 2026-04-25 19:48 | 38.03073 | -86.54787 | 38933 ft | 451 kts | 84° |
| 2026-04-25 19:48 | 38.03698 | -86.46865 | 38928 ft | 451 kts | 84° |
| 2026-04-25 19:49 | 38.04112 | -86.41568 | 38923 ft | 451 kts | 84° |
| 2026-04-25 19:49 | 38.04928 | -86.31037 | 38918 ft | 450 kts | 84° |
| 2026-04-25 19:50 | 38.05834 | -86.19208 | 38914 ft | 447 kts | 84° |
| 2026-04-25 19:51 | 38.06428 | -86.11368 | 38916 ft | 446 kts | 84° |
| 2026-04-25 19:51 | 38.07015 | -86.03549 | 38919 ft | 445 kts | 85° |
| 2026-04-25 19:52 | 38.07595 | -85.95749 | 38915 ft | 445 kts | 85° |
| 2026-04-25 19:52 | 38.08172 | -85.87917 | 38933 ft | 445 kts | 85° |
| 2026-04-25 19:53 | 38.08739 | -85.80152 | 38936 ft | 445 kts | 85° |
| 2026-04-25 19:53 | 38.09309 | -85.72266 | 38937 ft | 446 kts | 85° |
| 2026-04-25 19:54 | 38.09867 | -85.64509 | 38933 ft | 446 kts | 85° |
| 2026-04-25 19:54 | 38.10309 | -85.56580 | 38923 ft | 446 kts | 93° |
| 2026-04-25 19:55 | 38.09789 | -85.48757 | 38924 ft | 445 kts | 97° |
| 2026-04-25 19:55 | 38.09126 | -85.40998 | 38926 ft | 445 kts | 98° |
| 2026-04-25 19:56 | 38.08481 | -85.33195 | 38919 ft | 444 kts | 97° |
| 2026-04-25 19:56 | 38.07862 | -85.25392 | 38922 ft | 444 kts | 97° |
| 2026-04-25 19:57 | 38.07251 | -85.17596 | 38928 ft | 444 kts | 97° |
| 2026-04-25 19:57 | 38.06638 | -85.09816 | 38930 ft | 443 kts | 98° |
| 2026-04-25 19:58 | 38.06019 | -85.02050 | 38938 ft | 442 kts | 98° |
| 2026-04-25 19:58 | 38.05390 | -84.94232 | 38959 ft | 451 kts | 98° |
| 2026-04-25 19:59 | 38.04735 | -84.86189 | 38955 ft | 465 kts | 98° |
| 2026-04-25 19:59 | 38.04058 | -84.77913 | 38956 ft | 478 kts | 98° |
| 2026-04-25 20:00 | 38.03358 | -84.69425 | 38949 ft | 489 kts | 98° |
| 2026-04-25 20:00 | 38.02765 | -84.62279 | 38927 ft | 490 kts | 98° |
| 2026-04-25 20:01 | 38.01686 | -84.49401 | 38927 ft | 489 kts | 99° |
| 2026-04-25 20:01 | 38.00958 | -84.40831 | 38926 ft | 489 kts | 99° |
| 2026-04-25 20:02 | 38.00224 | -84.32269 | 38919 ft | 488 kts | 99° |
| 2026-04-25 20:02 | 37.99484 | -84.23710 | 38929 ft | 488 kts | 99° |
| 2026-04-25 20:03 | 37.98738 | -84.15154 | 38934 ft | 488 kts | 99° |
| 2026-04-25 20:03 | 37.97987 | -84.06615 | 38937 ft | 488 kts | 100° |
| 2026-04-25 20:04 | 37.97230 | -83.98078 | 38942 ft | 487 kts | 100° |
| 2026-04-25 20:04 | 37.96466 | -83.89534 | 38935 ft | 488 kts | 100° |
| 2026-04-25 20:05 | 37.95695 | -83.80996 | 38929 ft | 489 kts | 100° |
| 2026-04-25 20:05 | 37.94915 | -83.72418 | 38929 ft | 491 kts | 100° |
| 2026-04-25 20:06 | 37.94127 | -83.63816 | 38910 ft | 492 kts | 101° |
| 2026-04-25 20:06 | 37.93329 | -83.55187 | 38908 ft | 493 kts | 101° |
| 2026-04-25 20:07 | 37.92526 | -83.46555 | 38911 ft | 494 kts | 101° |
| 2026-04-25 20:07 | 37.91713 | -83.37901 | 38906 ft | 495 kts | 101° |
| 2026-04-25 20:08 | 37.90898 | -83.29287 | 38903 ft | 496 kts | 101° |
| 2026-04-25 20:08 | 37.90066 | -83.20556 | 38901 ft | 496 kts | 101° |
| 2026-04-25 20:09 | 37.89236 | -83.11929 | 38904 ft | 497 kts | 101° |
| 2026-04-25 20:09 | 37.88394 | -83.03239 | 38901 ft | 498 kts | 101° |
| 2026-04-25 20:10 | 37.87546 | -82.94542 | 38909 ft | 498 kts | 102° |
| 2026-04-25 20:10 | 37.86939 | -82.85774 | 38919 ft | 501 kts | 97° |
| 2026-04-25 20:11 | 37.86594 | -82.76939 | 38931 ft | 503 kts | 97° |
| 2026-04-25 20:11 | 37.86251 | -82.68100 | 38938 ft | 503 kts | 97° |
| 2026-04-25 20:12 | 37.85858 | -82.59248 | 38939 ft | 504 kts | 98° |
| 2026-04-25 20:12 | 37.85510 | -82.51881 | 38932 ft | 505 kts | 98° |
| 2026-04-25 20:13 | 37.85006 | -82.41505 | 38921 ft | 506 kts | 98° |
| 2026-04-25 20:13 | 37.84569 | -82.32606 | 38910 ft | 507 kts | 98° |
| 2026-04-25 20:14 | 37.84129 | -82.23748 | 38893 ft | 508 kts | 98° |
| 2026-04-25 20:14 | 37.83677 | -82.14766 | 38892 ft | 509 kts | 98° |
| 2026-04-25 20:15 | 37.83221 | -82.05829 | 38896 ft | 510 kts | 98° |
| 2026-04-25 20:15 | 37.82759 | -81.96946 | 38896 ft | 510 kts | 98° |
| 2026-04-25 20:16 | 37.82283 | -81.87975 | 38883 ft | 511 kts | 98° |
| 2026-04-25 20:16 | 37.81806 | -81.79007 | 38876 ft | 511 kts | 98° |
| 2026-04-25 20:17 | 37.81321 | -81.70031 | 38885 ft | 512 kts | 98° |
| 2026-04-25 20:17 | 37.80829 | -81.61054 | 38855 ft | 512 kts | 98° |
| 2026-04-25 20:18 | 37.80325 | -81.52076 | 38898 ft | 512 kts | 98° |
| 2026-04-25 20:18 | 37.79817 | -81.43079 | 38912 ft | 514 kts | 98° |
| 2026-04-25 20:19 | 37.79301 | -81.34055 | 38935 ft | 515 kts | 98° |
| 2026-04-25 20:19 | 37.78777 | -81.25016 | 38955 ft | 515 kts | 98° |
| 2026-04-25 20:20 | 37.78243 | -81.15977 | 38946 ft | 516 kts | 99° |
| 2026-04-25 20:20 | 37.76718 | -81.07244 | 38952 ft | 504 kts | 116° |
| 2026-04-25 20:21 | 37.74251 | -80.98972 | 38950 ft | 503 kts | 117° |
| 2026-04-25 20:21 | 37.71741 | -80.90705 | 38934 ft | 504 kts | 116° |
| 2026-04-25 20:22 | 37.70104 | -80.85217 | 38931 ft | 505 kts | 116° |
| 2026-04-25 20:22 | 37.66815 | -80.74057 | 38906 ft | 509 kts | 116° |
| 2026-04-25 20:23 | 37.64349 | -80.65676 | 38910 ft | 510 kts | 116° |
| 2026-04-25 20:23 | 37.61865 | -80.57270 | 38912 ft | 512 kts | 116° |
| 2026-04-25 20:24 | 37.59370 | -80.48858 | 38909 ft | 512 kts | 115° |
| 2026-04-25 20:24 | 37.56882 | -80.40500 | 38900 ft | 513 kts | 115° |
| 2026-04-25 20:25 | 37.54371 | -80.32089 | 38887 ft | 513 kts | 115° |
| 2026-04-25 20:25 | 37.51853 | -80.23679 | 38886 ft | 513 kts | 115° |
| 2026-04-25 20:26 | 37.49328 | -80.15274 | 38902 ft | 513 kts | 115° |
| 2026-04-25 20:26 | 37.46797 | -80.06873 | 38915 ft | 513 kts | 115° |
| 2026-04-25 20:27 | 37.44259 | -79.98478 | 38920 ft | 514 kts | 115° |
| 2026-04-25 20:27 | 37.41712 | -79.90074 | 38918 ft | 514 kts | 115° |
| 2026-04-25 20:28 | 37.39158 | -79.81675 | 38911 ft | 515 kts | 115° |
| 2026-04-25 20:28 | 37.36592 | -79.73261 | 38887 ft | 516 kts | 115° |
| 2026-04-25 20:29 | 37.34017 | -79.64842 | 38889 ft | 516 kts | 115° |
| 2026-04-25 20:29 | 37.31432 | -79.56415 | 38850 ft | 517 kts | 115° |
| 2026-04-25 20:30 | 37.28842 | -79.47997 | 38863 ft | 516 kts | 115° |
| 2026-04-25 20:30 | 37.26249 | -79.39593 | 38889 ft | 515 kts | 114° |
| 2026-04-25 20:31 | 37.23656 | -79.31217 | 38895 ft | 514 kts | 114° |
| 2026-04-25 20:31 | 37.21061 | -79.22856 | 38907 ft | 514 kts | 114° |
| 2026-04-25 20:32 | 37.18460 | -79.14502 | 38886 ft | 514 kts | 114° |
| 2026-04-25 20:32 | 37.15858 | -79.06164 | 38866 ft | 512 kts | 114° |
| 2026-04-25 20:33 | 37.13480 | -78.97817 | 38847 ft | 513 kts | 105° |
| 2026-04-25 20:33 | 37.12741 | -78.91912 | 38852 ft | 513 kts | 96° |
| 2026-04-25 20:34 | 37.11948 | -78.80043 | 38822 ft | 513 kts | 95° |
| 2026-04-25 20:34 | 37.11318 | -78.71135 | 38854 ft | 515 kts | 95° |
| 2026-04-25 20:35 | 37.10648 | -78.62159 | 38813 ft | 517 kts | 96° |
| 2026-04-25 20:35 | 37.09963 | -78.53225 | 38821 ft | 514 kts | 96° |
| 2026-04-25 20:36 | 37.09266 | -78.44325 | 38830 ft | 513 kts | 96° |
| 2026-04-25 20:36 | 37.08563 | -78.35454 | 38827 ft | 511 kts | 96° |
| 2026-04-25 20:37 | 37.07856 | -78.26612 | 38818 ft | 510 kts | 96° |
| 2026-04-25 20:37 | 37.07144 | -78.17769 | 38813 ft | 510 kts | 95° |
| 2026-04-25 20:38 | 37.06425 | -78.08933 | 38805 ft | 510 kts | 95° |
| 2026-04-25 20:38 | 37.05700 | -78.00111 | 38812 ft | 509 kts | 95° |
| 2026-04-25 20:39 | 37.04969 | -77.91296 | 38805 ft | 509 kts | 95° |
| 2026-04-25 20:39 | 37.04481 | -77.85452 | 38676 ft | 512 kts | 95° |
| 2026-04-25 20:40 | 37.03870 | -77.78172 | 37534 ft | 513 kts | 95° |
| 2026-04-25 20:40 | 37.03495 | -77.73736 | 36777 ft | 511 kts | 96° |
| 2026-04-25 20:40 | 37.03121 | -77.69333 | 36035 ft | 509 kts | 96° |
| 2026-04-25 20:40 | 37.02751 | -77.64988 | 35246 ft | 508 kts | 96° |
| 2026-04-25 20:41 | 37.02374 | -77.60589 | 34368 ft | 509 kts | 97° |
| 2026-04-25 20:41 | 37.01995 | -77.56185 | 33403 ft | 510 kts | 97° |
| 2026-04-25 20:41 | 37.01613 | -77.51773 | 32343 ft | 510 kts | 97° |
| 2026-04-25 20:41 | 37.01228 | -77.47348 | 31296 ft | 511 kts | 97° |
| 2026-04-25 20:42 | 37.00842 | -77.42922 | 30217 ft | 513 kts | 97° |
| 2026-04-25 20:42 | 37.00453 | -77.38479 | 28910 ft | 515 kts | 97° |
| 2026-04-25 20:42 | 37.00060 | -77.34019 | 27554 ft | 516 kts | 97° |
| 2026-04-25 20:42 | 36.99666 | -77.29558 | 26262 ft | 515 kts | 97° |
| 2026-04-25 20:43 | 36.99272 | -77.25116 | 25114 ft | 512 kts | 97° |
| 2026-04-25 20:43 | 36.98879 | -77.20707 | 24049 ft | 506 kts | 97° |
| 2026-04-25 20:43 | 36.98491 | -77.16365 | 22951 ft | 500 kts | 97° |
| 2026-04-25 20:43 | 36.98107 | -77.12090 | 21977 ft | 489 kts | 97° |
| 2026-04-25 20:44 | 36.97729 | -77.07895 | 20920 ft | 481 kts | 97° |
| 2026-04-25 20:44 | 36.97357 | -77.03789 | 19936 ft | 471 kts | 97° |
| 2026-04-25 20:44 | 36.96991 | -76.99764 | 19053 ft | 461 kts | 97° |
| 2026-04-25 20:44 | 36.96629 | -76.95807 | 18147 ft | 453 kts | 97° |
| 2026-04-25 20:45 | 36.96274 | -76.91936 | 17043 ft | 446 kts | 97° |
| 2026-04-25 20:45 | 36.95924 | -76.88125 | 16094 ft | 437 kts | 97° |
| 2026-04-25 20:45 | 36.95579 | -76.84375 | 15073 ft | 431 kts | 97° |
| 2026-04-25 20:45 | 36.95237 | -76.80681 | 14130 ft | 425 kts | 97° |
| 2026-04-25 20:46 | 36.94898 | -76.77033 | 13162 ft | 419 kts | 97° |
| 2026-04-25 20:46 | 36.94564 | -76.73448 | 12180 ft | 412 kts | 98° |
| 2026-04-25 20:46 | 36.94234 | -76.69917 | 11329 ft | 406 kts | 98° |
| 2026-04-25 20:46 | 36.93918 | -76.66531 | 11225 ft | 380 kts | 98° |
| 2026-04-25 20:47 | 36.93719 | -76.64404 | 11120 ft | 366 kts | 98° |
| 2026-04-25 20:47 | 36.93430 | -76.61330 | 11002 ft | 346 kts | 98° |
| 2026-04-25 20:47 | 36.93155 | -76.58415 | 10875 ft | 327 kts | 98° |
| 2026-04-25 20:47 | 36.92898 | -76.55695 | 10638 ft | 307 kts | 99° |
| 2026-04-25 20:48 | 36.92647 | -76.53063 | 10050 ft | 303 kts | 99° |
| 2026-04-25 20:48 | 36.92396 | -76.50443 | 9348 ft | 304 kts | 99° |
| 2026-04-25 20:48 | 36.92145 | -76.47832 | 8688 ft | 301 kts | 99° |
| 2026-04-25 20:48 | 36.91898 | -76.45261 | 8092 ft | 297 kts | 99° |
| 2026-04-25 20:49 | 36.91652 | -76.42704 | 7502 ft | 294 kts | 99° |
| 2026-04-25 20:49 | 36.91269 | -76.40233 | 6876 ft | 287 kts | 116° |
| 2026-04-25 20:49 | 36.90328 | -76.38072 | 6298 ft | 281 kts | 124° |
| 2026-04-25 20:49 | 36.89338 | -76.35975 | 5725 ft | 278 kts | 125° |
| 2026-04-25 20:50 | 36.88174 | -76.34092 | 5162 ft | 272 kts | 135° |
| 2026-04-25 20:50 | 36.86913 | -76.32360 | 4563 ft | 268 kts | 136° |
| 2026-04-25 20:50 | 36.85659 | -76.30689 | 3930 ft | 256 kts | 136° |
| 2026-04-25 20:50 | 36.84493 | -76.29122 | 3346 ft | 238 kts | 133° |
| 2026-04-25 20:51 | 36.83647 | -76.27416 | 2691 ft | 227 kts | 112° |
| 2026-04-25 20:51 | 36.83679 | -76.25509 | 2157 ft | 219 kts | 69° |
| 2026-04-25 20:51 | 36.84689 | -76.24212 | 1812 ft | 207 kts | 25° |
| 2026-04-25 20:51 | 36.85925 | -76.23525 | 1606 ft | 184 kts | 45° |
| 2026-04-25 20:52 | 36.86741 | -76.22365 | 1138 ft | 180 kts | 52° |
| 2026-04-25 20:52 | 36.87397 | -76.21695 | 703 ft | 185 kts | 30° |
| 2026-04-25 20:52 | 36.88784 | -76.20654 | 41 ft | 165 kts | 36° |
| 2026-04-25 20:52 | 36.89602 | -76.19862 | 7 ft | 131 kts | 38° |
| 2026-04-25 20:53 | 36.90131 | -76.19343 | 3 ft | 35 kts | 37° |
| 2026-04-25 20:53 | 36.90205 | -76.19300 | 2 ft | 5 kts | 354° |
| 2026-04-25 20:53 | 36.90239 | -76.19325 | 2 ft | 7 kts | 315° |
| 2026-04-25 20:53 | 36.90273 | -76.19370 | 4 ft | 7 kts | 311° |
| 2026-04-25 20:54 | 36.90292 | -76.19425 | 2 ft | 7 kts | 267° |
| 2026-04-25 20:54 | 36.90264 | -76.19472 | 2 ft | 7 kts | 215° |
| 2026-04-25 20:54 | 36.90222 | -76.19501 | 2 ft | 7 kts | 206° |
| 2026-04-25 20:54 | 36.90180 | -76.19527 | 2 ft | 7 kts | 206° |
| 2026-04-25 20:55 | 36.90139 | -76.19552 | 2 ft | 7 kts | 206° |
| 2026-04-25 20:55 | 36.90100 | -76.19581 | 2 ft | 6 kts | 214° |
| 2026-04-25 20:55 | 36.90060 | -76.19619 | 2 ft | 10 kts | 218° |
| 2026-04-25 20:55 | 36.89994 | -76.19686 | 2 ft | 13 kts | 219° |
| 2026-04-25 20:56 | 36.89924 | -76.19757 | 2 ft | 13 kts | 219° |
| 2026-04-25 20:56 | 36.89855 | -76.19826 | 2 ft | 13 kts | 219° |
| 2026-04-25 20:56 | 36.89786 | -76.19890 | 4 ft | 12 kts | 216° |
| 2026-04-25 20:56 | 36.89734 | -76.19965 | 4 ft | 12 kts | 270° |
| 2026-04-25 20:57 | 36.89756 | -76.20056 | 2 ft | 7 kts | 272° |
| 2026-04-25 20:57 | 36.89729 | -76.20102 | 3 ft | 7 kts | 225° |
| 2026-04-25 20:57 | 36.89713 | -76.20123 | 3 ft | 1 kts | 226° |
| 2026-04-25 20:57 | 36.89711 | -76.20126 | 3 ft | 0 kts | 226° |